Bampton, United Kingdom
Current Conditions -  °F | °C
As of 10:50 AM on Monday 20 Oct 2014 (Local Time) from EGVN Reporting Station
Broken Clouds Broken Clouds  
Wind Chill: 14°   Ceiling: 15000
Heat Index: 14°   Visibility: 6mi
Dew Point: 11°   Wind: 8mph
Humidity: 82%   Direction: 230°SW
Pressure: 30"   Gusts: NA
Location:  51.73°N, 1.55°W
Report Text: EGVN 200950Z 23007KT 9999 SCT014 BKN150 14/11 Q1016 GRN BECMG FEW014 BLU
Loading
Personal Weather Stations






























Interactive Weather Map
Tropical Storm Tracking
New forecast layout! Learn more

10-Day Weather Forecast

Advertisements
Track Severe Weather on mobile